sensor_id;sensor_type;location;lat;lon;timestamp;pressure;altitude;pressure_sealevel;temperature;humidity
10652;BME280;5374;42.742;23.266;2024-03-22T00:01:39;95520.97;;;6.60;54.50
10652;BME280;5374;42.742;23.266;2024-03-22T00:04:25;95523.50;;;6.55;54.56
10652;BME280;5374;42.742;23.266;2024-03-22T00:07:13;95517.94;;;6.45;54.63
10652;BME280;5374;42.742;23.266;2024-03-22T00:10:00;95516.63;;;6.36;54.55
10652;BME280;5374;42.742;23.266;2024-03-22T00:12:49;95518.22;;;6.37;54.89
10652;BME280;5374;42.742;23.266;2024-03-22T00:15:35;95503.75;;;6.28;54.83
10652;BME280;5374;42.742;23.266;2024-03-22T00:18:22;95513.38;;;6.34;55.12
10652;BME280;5374;42.742;23.266;2024-03-22T00:21:08;95524.63;;;6.29;55.92
10652;BME280;5374;42.742;23.266;2024-03-22T00:23:56;95499.50;;;6.08;56.18
10652;BME280;5374;42.742;23.266;2024-03-22T00:26:43;95500.75;;;6.06;57.13
10652;BME280;5374;42.742;23.266;2024-03-22T00:29:30;95514.16;;;6.04;57.37
10652;BME280;5374;42.742;23.266;2024-03-22T00:32:16;95511.78;;;5.96;57.83
10652;BME280;5374;42.742;23.266;2024-03-22T00:35:04;95514.66;;;5.88;58.06
10652;BME280;5374;42.742;23.266;2024-03-22T00:37:50;95516.97;;;5.84;58.43
10652;BME280;5374;42.742;23.266;2024-03-22T00:40:37;95495.91;;;5.60;58.40
10652;BME280;5374;42.742;23.266;2024-03-22T00:43:24;95519.28;;;5.74;58.46
10652;BME280;5374;42.742;23.266;2024-03-22T00:46:11;95507.38;;;5.65;58.34
10652;BME280;5374;42.742;23.266;2024-03-22T00:48:58;95512.44;;;5.67;58.43
10652;BME280;5374;42.742;23.266;2024-03-22T00:51:45;95513.94;;;5.63;58.92
10652;BME280;5374;42.742;23.266;2024-03-22T00:54:33;95509.25;;;5.65;59.44
10652;BME280;5374;42.742;23.266;2024-03-22T00:57:20;95522.31;;;5.53;59.59
10652;BME280;5374;42.742;23.266;2024-03-22T01:00:09;95519.13;;;5.44;59.79
10652;BME280;5374;42.742;23.266;2024-03-22T01:02:56;95517.16;;;5.40;59.83
10652;BME280;5374;42.742;23.266;2024-03-22T01:05:42;95511.56;;;5.30;60.66
10652;BME280;5374;42.742;23.266;2024-03-22T01:08:30;95513.97;;;5.31;60.74
10652;BME280;5374;42.742;23.266;2024-03-22T01:11:16;95511.56;;;5.30;60.63
10652;BME280;5374;42.742;23.266;2024-03-22T01:14:03;95512.16;;;5.32;60.15
10652;BME280;5374;42.742;23.266;2024-03-22T01:16:51;95496.22;;;5.20;59.99
10652;BME280;5374;42.742;23.266;2024-03-22T01:19:38;95504.72;;;5.22;59.89
10652;BME280;5374;42.742;23.266;2024-03-22T01:22:24;95511.97;;;5.27;59.93
10652;BME280;5374;42.742;23.266;2024-03-22T01:25:11;95514.81;;;5.25;59.45
10652;BME280;5374;42.742;23.266;2024-03-22T01:27:57;95499.16;;;5.12;59.22
10652;BME280;5374;42.742;23.266;2024-03-22T01:30:44;95491.06;;;5.07;59.02
10652;BME280;5374;42.742;23.266;2024-03-22T01:33:32;95513.63;;;5.21;59.01
10652;BME280;5374;42.742;23.266;2024-03-22T01:36:19;95516.50;;;5.20;58.89
10652;BME280;5374;42.742;23.266;2024-03-22T01:39:06;95517.94;;;5.15;59.11
10652;BME280;5374;42.742;23.266;2024-03-22T01:41:53;95519.41;;;5.11;59.32
10652;BME280;5374;42.742;23.266;2024-03-22T01:44:39;95519.59;;;5.10;59.51
10652;BME280;5374;42.742;23.266;2024-03-22T01:47:26;95510.72;;;5.04;59.63
10652;BME280;5374;42.742;23.266;2024-03-22T01:50:14;95525.28;;;5.07;59.73
10652;BME280;5374;42.742;23.266;2024-03-22T01:53:01;95512.16;;;5.00;59.84
10652;BME280;5374;42.742;23.266;2024-03-22T01:55:48;95524.31;;;5.01;60.05
10652;BME280;5374;42.742;23.266;2024-03-22T01:58:35;95517.84;;;4.97;60.31
10652;BME280;5374;42.742;23.266;2024-03-22T02:01:21;95515.47;;;4.96;60.34
10652;BME280;5374;42.742;23.266;2024-03-22T02:04:08;95515.88;;;4.93;60.55
10652;BME280;5374;42.742;23.266;2024-03-22T02:06:56;95505.41;;;4.79;61.23
10652;BME280;5374;42.742;23.266;2024-03-22T02:09:43;95521.97;;;4.87;61.10
10652;BME280;5374;42.742;23.266;2024-03-22T02:12:30;95515.91;;;4.86;60.97
10652;BME280;5374;42.742;23.266;2024-03-22T02:15:17;95517.16;;;4.77;60.96
10652;BME280;5374;42.742;23.266;2024-03-22T02:18:03;95513.59;;;4.71;60.91
10652;BME280;5374;42.742;23.266;2024-03-22T02:20:50;95516.63;;;4.68;61.08
10652;BME280;5374;42.742;23.266;2024-03-22T02:23:39;95517.03;;;4.65;61.21
10652;BME280;5374;42.742;23.266;2024-03-22T02:26:27;95532.22;;;4.63;61.03
10652;BME280;5374;42.742;23.266;2024-03-22T02:29:13;95527.00;;;4.57;61.16
10652;BME280;5374;42.742;23.266;2024-03-22T02:32:00;95514.53;;;4.45;60.92
10652;BME280;5374;42.742;23.266;2024-03-22T02:34:47;95523.84;;;4.41;61.08
10652;BME280;5374;42.742;23.266;2024-03-22T02:37:33;95535.16;;;4.42;61.22
10652;BME280;5374;42.742;23.266;2024-03-22T02:40:22;95541.44;;;4.41;61.28
10652;BME280;5374;42.742;23.266;2024-03-22T02:43:08;95536.59;;;4.31;61.40
10652;BME280;5374;42.742;23.266;2024-03-22T02:45:55;95541.66;;;4.33;61.50
10652;BME280;5374;42.742;23.266;2024-03-22T02:48:41;95541.50;;;4.28;61.45
10652;BME280;5374;42.742;23.266;2024-03-22T02:51:28;95541.91;;;4.25;61.80
10652;BME280;5374;42.742;23.266;2024-03-22T02:54:14;95533.88;;;4.06;61.88
10652;BME280;5374;42.742;23.266;2024-03-22T02:57:03;95554.25;;;4.11;62.09
10652;BME280;5374;42.742;23.266;2024-03-22T02:59:49;95559.56;;;4.04;62.40
10652;BME280;5374;42.742;23.266;2024-03-22T03:02:36;95560.41;;;3.78;62.85
10652;BME280;5374;42.742;23.266;2024-03-22T03:05:23;95556.53;;;3.94;62.81
10652;BME280;5374;42.742;23.266;2024-03-22T03:08:09;95552.50;;;3.85;62.93
10652;BME280;5374;42.742;23.266;2024-03-22T03:10:56;95553.94;;;3.68;63.27
10652;BME280;5374;42.742;23.266;2024-03-22T03:13:44;95553.16;;;3.61;63.54
10652;BME280;5374;42.742;23.266;2024-03-22T03:16:31;95566.06;;;3.69;63.85
10652;BME280;5374;42.742;23.266;2024-03-22T03:19:17;95565.25;;;3.68;63.92
10652;BME280;5374;42.742;23.266;2024-03-22T03:22:04;95569.69;;;3.68;63.83
10652;BME280;5374;42.742;23.266;2024-03-22T03:24:50;95569.91;;;3.60;64.08
10652;BME280;5374;42.742;23.266;2024-03-22T03:27:37;95578.00;;;3.58;64.12
10652;BME280;5374;42.742;23.266;2024-03-22T03:30:25;95567.69;;;3.43;64.21
10652;BME280;5374;42.742;23.266;2024-03-22T03:33:12;95580.59;;;3.52;64.57
10652;BME280;5374;42.742;23.266;2024-03-22T03:35:58;95581.63;;;3.51;64.75
10652;BME280;5374;42.742;23.266;2024-03-22T03:38:45;95584.03;;;3.46;64.96
10652;BME280;5374;42.742;23.266;2024-03-22T03:41:31;95585.66;;;3.47;64.98
10652;BME280;5374;42.742;23.266;2024-03-22T03:44:18;95583.84;;;3.47;65.30
10652;BME280;5374;42.742;23.266;2024-03-22T03:47:06;95562.84;;;3.34;65.49
10652;BME280;5374;42.742;23.266;2024-03-22T03:49:53;95574.34;;;3.39;65.87
10652;BME280;5374;42.742;23.266;2024-03-22T03:52:39;95590.28;;;3.44;66.34
10652;BME280;5374;42.742;23.266;2024-03-22T03:55:26;95600.78;;;3.44;66.49
10652;BME280;5374;42.742;23.266;2024-03-22T03:58:12;95593.72;;;3.45;66.73
10652;BME280;5374;42.742;23.266;2024-03-22T04:01:05;95604.41;;;3.43;66.74
10652;BME280;5374;42.742;23.266;2024-03-22T04:03:52;95599.00;;;3.38;66.66
10652;BME280;5374;42.742;23.266;2024-03-22T04:06:39;95590.69;;;3.28;67.01
10652;BME280;5374;42.742;23.266;2024-03-22T04:09:25;95614.13;;;3.36;67.18
10652;BME280;5374;42.742;23.266;2024-03-22T04:12:13;95578.16;;;3.17;67.53
10652;BME280;5374;42.742;23.266;2024-03-22T04:14:59;95615.94;;;3.36;67.58
10652;BME280;5374;42.742;23.266;2024-03-22T04:17:46;95619.78;;;3.33;67.94
10652;BME280;5374;42.742;23.266;2024-03-22T04:20:34;95596.72;;;3.22;67.99
10652;BME280;5374;42.742;23.266;2024-03-22T04:23:21;95610.28;;;3.32;68.29
10652;BME280;5374;42.742;23.266;2024-03-22T04:26:07;95626.00;;;3.39;68.34
10652;BME280;5374;42.742;23.266;2024-03-22T04:28:55;95619.75;;;3.40;68.09
10652;BME280;5374;42.742;23.266;2024-03-22T04:31:41;95626.44;;;3.42;68.14
10652;BME280;5374;42.742;23.266;2024-03-22T04:34:28;95627.03;;;3.44;68.22
10652;BME280;5374;42.742;23.266;2024-03-22T04:37:15;95634.31;;;3.49;68.06
10652;BME280;5374;42.742;23.266;2024-03-22T04:40:03;95643.81;;;3.57;68.07
10652;BME280;5374;42.742;23.266;2024-03-22T04:42:50;95637.75;;;3.63;68.17
10652;BME280;5374;42.742;23.266;2024-03-22T04:45:37;95646.03;;;3.73;68.06
10652;BME280;5374;42.742;23.266;2024-03-22T04:48:24;95642.41;;;3.81;67.83
10652;BME280;5374;42.742;23.266;2024-03-22T04:51:10;95637.16;;;3.87;67.77
10652;BME280;5374;42.742;23.266;2024-03-22T04:53:59;95640.78;;;3.99;67.60
10652;BME280;5374;42.742;23.266;2024-03-22T04:56:45;95649.06;;;4.09;67.55
10652;BME280;5374;42.742;23.266;2024-03-22T04:59:32;95642.38;;;4.13;67.16
10652;BME280;5374;42.742;23.266;2024-03-22T05:02:18;95658.16;;;4.27;66.85
10652;BME280;5374;42.742;23.266;2024-03-22T05:05:06;95630.44;;;4.24;64.93
10652;BME280;5374;42.742;23.266;2024-03-22T05:07:53;95642.94;;;4.35;65.22
10652;BME280;5374;42.742;23.266;2024-03-22T05:10:41;95653.25;;;4.50;64.85
10652;BME280;5374;42.742;23.266;2024-03-22T05:13:29;95644.72;;;4.61;64.05
10652;BME280;5374;42.742;23.266;2024-03-22T05:16:15;95623.47;;;4.63;63.46
10652;BME280;5374;42.742;23.266;2024-03-22T05:19:02;95638.34;;;4.82;63.22
10652;BME280;5374;42.742;23.266;2024-03-22T05:21:48;95638.44;;;5.07;62.38
10652;BME280;5374;42.742;23.266;2024-03-22T05:24:35;95637.72;;;5.88;61.14
10652;BME280;5374;42.742;23.266;2024-03-22T05:27:22;95649.16;;;8.76;53.33
10652;BME280;5374;42.742;23.266;2024-03-22T05:30:10;95644.69;;;12.25;45.03
10652;BME280;5374;42.742;23.266;2024-03-22T05:32:57;95644.72;;;15.43;38.45
10652;BME280;5374;42.742;23.266;2024-03-22T05:35:44;95648.78;;;17.82;33.85
10652;BME280;5374;42.742;23.266;2024-03-22T05:38:30;95644.47;;;19.57;30.15
10652;BME280;5374;42.742;23.266;2024-03-22T05:41:17;95648.19;;;21.48;28.12
10652;BME280;5374;42.742;23.266;2024-03-22T05:44:05;95647.63;;;23.36;25.80
10652;BME280;5374;42.742;23.266;2024-03-22T05:46:52;95659.34;;;25.24;24.13
10652;BME280;5374;42.742;23.266;2024-03-22T05:49:38;95632.59;;;26.79;21.88
10652;BME280;5374;42.742;23.266;2024-03-22T05:52:25;95655.69;;;28.42;20.46
10652;BME280;5374;42.742;23.266;2024-03-22T05:55:11;95661.81;;;29.81;19.67
10652;BME280;5374;42.742;23.266;2024-03-22T05:57:58;95658.03;;;31.09;18.30
10652;BME280;5374;42.742;23.266;2024-03-22T06:00:46;95657.88;;;32.24;17.45
10652;BME280;5374;42.742;23.266;2024-03-22T06:03:34;95659.91;;;33.53;16.67
10652;BME280;5374;42.742;23.266;2024-03-22T06:06:20;95663.84;;;34.16;16.40
10652;BME280;5374;42.742;23.266;2024-03-22T06:09:10;95643.97;;;34.85;15.57
10652;BME280;5374;42.742;23.266;2024-03-22T06:11:58;95658.78;;;35.82;14.99
10652;BME280;5374;42.742;23.266;2024-03-22T06:14:46;95656.09;;;36.57;14.78
10652;BME280;5374;42.742;23.266;2024-03-22T06:17:35;95658.31;;;37.34;14.08
10652;BME280;5374;42.742;23.266;2024-03-22T06:20:22;95664.50;;;37.72;13.96
10652;BME280;5374;42.742;23.266;2024-03-22T06:23:08;95665.91;;;38.30;13.40
10652;BME280;5374;42.742;23.266;2024-03-22T06:25:56;95659.25;;;38.67;13.00
10652;BME280;5374;42.742;23.266;2024-03-22T06:28:42;95649.72;;;38.68;13.43
10652;BME280;5374;42.742;23.266;2024-03-22T06:31:29;95650.94;;;39.07;12.83
10652;BME280;5374;42.742;23.266;2024-03-22T06:34:16;95652.84;;;39.10;12.95
10652;BME280;5374;42.742;23.266;2024-03-22T06:37:04;95656.78;;;39.48;12.53
10652;BME280;5374;42.742;23.266;2024-03-22T06:39:50;95666.53;;;38.81;12.26
10652;BME280;5374;42.742;23.266;2024-03-22T06:42:37;95664.47;;;38.85;12.42
10652;BME280;5374;42.742;23.266;2024-03-22T06:45:23;95655.53;;;38.54;12.76
10652;BME280;5374;42.742;23.266;2024-03-22T06:48:10;95651.19;;;38.10;13.30
10652;BME280;5374;42.742;23.266;2024-03-22T06:50:58;95665.78;;;37.37;13.31
10652;BME280;5374;42.742;23.266;2024-03-22T06:53:45;95675.44;;;35.71;13.58
10652;BME280;5374;42.742;23.266;2024-03-22T06:56:31;95680.78;;;33.57;15.35
10652;BME280;5374;42.742;23.266;2024-03-22T06:59:18;95682.59;;;31.73;16.32
10652;BME280;5374;42.742;23.266;2024-03-22T07:02:04;95675.78;;;30.25;17.50
10652;BME280;5374;42.742;23.266;2024-03-22T07:04:52;95685.44;;;28.47;18.47
10652;BME280;5374;42.742;23.266;2024-03-22T07:07:39;95684.34;;;27.50;19.61
10652;BME280;5374;42.742;23.266;2024-03-22T07:10:26;95683.22;;;26.52;21.69
10652;BME280;5374;42.742;23.266;2024-03-22T07:13:13;95693.81;;;25.56;22.44
10652;BME280;5374;42.742;23.266;2024-03-22T07:16:00;95680.00;;;24.50;22.90
10652;BME280;5374;42.742;23.266;2024-03-22T07:18:46;95688.13;;;23.79;23.47
10652;BME280;5374;42.742;23.266;2024-03-22T07:21:34;95697.53;;;23.35;24.55
10652;BME280;5374;42.742;23.266;2024-03-22T07:24:21;95688.59;;;22.88;25.16
10652;BME280;5374;42.742;23.266;2024-03-22T07:27:09;95691.94;;;22.07;25.03
10652;BME280;5374;42.742;23.266;2024-03-22T07:29:56;95682.91;;;21.72;25.27
10652;BME280;5374;42.742;23.266;2024-03-22T07:32:43;95686.16;;;21.43;26.65
10652;BME280;5374;42.742;23.266;2024-03-22T07:35:29;95674.97;;;21.05;26.94
10652;BME280;5374;42.742;23.266;2024-03-22T07:38:16;95689.19;;;20.88;26.75
10652;BME280;5374;42.742;23.266;2024-03-22T07:41:04;95682.31;;;20.82;27.20
10652;BME280;5374;42.742;23.266;2024-03-22T07:43:51;95672.78;;;20.54;27.48
10652;BME280;5374;42.742;23.266;2024-03-22T07:46:37;95681.31;;;20.47;26.53
10652;BME280;5374;42.742;23.266;2024-03-22T07:49:24;95682.41;;;20.10;27.68
10652;BME280;5374;42.742;23.266;2024-03-22T07:52:11;95685.59;;;19.98;26.92
10652;BME280;5374;42.742;23.266;2024-03-22T07:54:57;95681.94;;;19.67;28.08
10652;BME280;5374;42.742;23.266;2024-03-22T07:57:46;95683.25;;;19.42;30.27
10652;BME280;5374;42.742;23.266;2024-03-22T08:00:32;95683.25;;;18.82;28.54
10652;BME280;5374;42.742;23.266;2024-03-22T08:03:19;95678.75;;;18.45;30.15
10652;BME280;5374;42.742;23.266;2024-03-22T08:06:06;95681.88;;;18.52;29.90
10652;BME280;5374;42.742;23.266;2024-03-22T08:08:52;95671.69;;;18.49;29.46
10652;BME280;5374;42.742;23.266;2024-03-22T08:11:39;95689.22;;;18.47;30.42
10652;BME280;5374;42.742;23.266;2024-03-22T08:14:27;95672.84;;;18.43;31.12
10652;BME280;5374;42.742;23.266;2024-03-22T08:17:14;95677.09;;;18.11;30.46
10652;BME280;5374;42.742;23.266;2024-03-22T08:20:00;95686.97;;;17.31;32.09
10652;BME280;5374;42.742;23.266;2024-03-22T08:22:48;95675.81;;;17.66;31.74
10652;BME280;5374;42.742;23.266;2024-03-22T08:25:34;95667.66;;;17.76;32.74
10652;BME280;5374;42.742;23.266;2024-03-22T08:28:24;95669.03;;;17.50;32.36
10652;BME280;5374;42.742;23.266;2024-03-22T08:31:11;95631.75;;;17.25;30.88
10652;BME280;5374;42.742;23.266;2024-03-22T08:33:58;95668.56;;;17.43;34.25
10652;BME280;5374;42.742;23.266;2024-03-22T08:36:45;95646.97;;;17.53;32.75
10652;BME280;5374;42.742;23.266;2024-03-22T08:39:32;95639.53;;;17.45;33.25
10652;BME280;5374;42.742;23.266;2024-03-22T08:42:18;95656.97;;;17.00;32.93
10652;BME280;5374;42.742;23.266;2024-03-22T08:45:07;95664.59;;;17.17;34.80
10652;BME280;5374;42.742;23.266;2024-03-22T08:47:54;95663.16;;;17.48;33.22
10652;BME280;5374;42.742;23.266;2024-03-22T08:50:42;95652.88;;;17.31;31.08
10652;BME280;5374;42.742;23.266;2024-03-22T08:53:29;95666.41;;;17.45;31.38
10652;BME280;5374;42.742;23.266;2024-03-22T08:56:15;95655.91;;;17.25;31.67
10652;BME280;5374;42.742;23.266;2024-03-22T08:59:02;95660.06;;;17.60;33.81
10652;BME280;5374;42.742;23.266;2024-03-22T09:01:48;95652.75;;;17.65;33.01
10652;BME280;5374;42.742;23.266;2024-03-22T09:04:38;95649.72;;;17.91;31.79
10652;BME280;5374;42.742;23.266;2024-03-22T09:07:24;95655.03;;;17.96;30.57
10652;BME280;5374;42.742;23.266;2024-03-22T09:10:11;95652.84;;;17.13;34.70
10652;BME280;5374;42.742;23.266;2024-03-22T09:12:57;95656.75;;;17.44;30.93
10652;BME280;5374;42.742;23.266;2024-03-22T09:15:44;95643.31;;;17.44;32.67
10652;BME280;5374;42.742;23.266;2024-03-22T09:18:30;95651.59;;;17.48;31.74
10652;BME280;5374;42.742;23.266;2024-03-22T09:21:20;95651.94;;;17.17;32.54
10652;BME280;5374;42.742;23.266;2024-03-22T09:24:06;95643.56;;;17.24;34.20
10652;BME280;5374;42.742;23.266;2024-03-22T09:26:53;95640.19;;;17.37;30.99
10652;BME280;5374;42.742;23.266;2024-03-22T09:29:39;95637.72;;;17.40;32.12
10652;BME280;5374;42.742;23.266;2024-03-22T09:32:26;95638.13;;;17.53;31.29
10652;BME280;5374;42.742;23.266;2024-03-22T09:35:12;95645.53;;;16.65;33.61
10652;BME280;5374;42.742;23.266;2024-03-22T09:38:01;95645.53;;;16.94;32.53
10652;BME280;5374;42.742;23.266;2024-03-22T09:40:49;95627.69;;;16.80;32.00
10652;BME280;5374;42.742;23.266;2024-03-22T09:43:39;95638.19;;;17.00;32.05
10652;BME280;5374;42.742;23.266;2024-03-22T09:46:30;95625.59;;;17.00;31.59
10652;BME280;5374;42.742;23.266;2024-03-22T09:49:16;95617.66;;;17.14;31.13
10652;BME280;5374;42.742;23.266;2024-03-22T09:52:05;95633.00;;;17.32;30.79
10652;BME280;5374;42.742;23.266;2024-03-22T09:54:53;95609.00;;;17.41;30.93
10652;BME280;5374;42.742;23.266;2024-03-22T09:57:41;95630.34;;;17.51;31.18
10652;BME280;5374;42.742;23.266;2024-03-22T10:00:29;95623.41;;;16.79;32.72
10652;BME280;5374;42.742;23.266;2024-03-22T10:03:17;95612.91;;;16.82;32.41
10652;BME280;5374;42.742;23.266;2024-03-22T10:06:03;95599.44;;;16.63;33.28
10652;BME280;5374;42.742;23.266;2024-03-22T10:08:50;95603.81;;;16.78;35.07
10652;BME280;5374;42.742;23.266;2024-03-22T10:11:38;95609.16;;;16.83;34.11
10652;BME280;5374;42.742;23.266;2024-03-22T10:14:25;95603.94;;;16.68;33.55
10652;BME280;5374;42.742;23.266;2024-03-22T10:17:12;95613.41;;;16.55;33.44
10652;BME280;5374;42.742;23.266;2024-03-22T10:19:59;95596.31;;;16.80;34.70
10652;BME280;5374;42.742;23.266;2024-03-22T10:22:48;95592.00;;;17.27;35.92
10652;BME280;5374;42.742;23.266;2024-03-22T10:25:36;95593.63;;;17.04;35.20
10652;BME280;5374;42.742;23.266;2024-03-22T10:28:24;95589.75;;;17.15;33.61
10652;BME280;5374;42.742;23.266;2024-03-22T10:31:11;95587.78;;;16.73;32.61
10652;BME280;5374;42.742;23.266;2024-03-22T10:33:58;95557.59;;;16.62;32.43
10652;BME280;5374;42.742;23.266;2024-03-22T10:36:46;95584.50;;;17.05;32.18
10652;BME280;5374;42.742;23.266;2024-03-22T10:39:33;95579.28;;;17.14;33.22
10652;BME280;5374;42.742;23.266;2024-03-22T10:42:19;95578.22;;;17.15;32.07
10652;BME280;5374;42.742;23.266;2024-03-22T10:45:09;95572.59;;;17.35;32.70
10652;BME280;5374;42.742;23.266;2024-03-22T10:47:56;95547.16;;;16.85;32.45
10652;BME280;5374;42.742;23.266;2024-03-22T10:50:43;95570.91;;;16.72;33.61
10652;BME280;5374;42.742;23.266;2024-03-22T10:53:31;95564.81;;;16.91;33.43
10652;BME280;5374;42.742;23.266;2024-03-22T10:56:19;95560.41;;;17.00;33.17
10652;BME280;5374;42.742;23.266;2024-03-22T10:59:07;95551.41;;;16.91;34.17
10652;BME280;5374;42.742;23.266;2024-03-22T11:02:02;95560.75;;;17.36;31.30
10652;BME280;5374;42.742;23.266;2024-03-22T11:04:54;95560.66;;;17.22;31.76
10652;BME280;5374;42.742;23.266;2024-03-22T11:07:43;95550.13;;;16.83;33.11
10652;BME280;5374;42.742;23.266;2024-03-22T11:10:30;95546.59;;;16.88;32.21
10652;BME280;5374;42.742;23.266;2024-03-22T11:13:18;95529.00;;;17.00;30.71
10652;BME280;5374;42.742;23.266;2024-03-22T11:16:05;95538.91;;;17.42;31.20
10652;BME280;5374;42.742;23.266;2024-03-22T11:18:55;95531.50;;;17.53;31.27
10652;BME280;5374;42.742;23.266;2024-03-22T11:21:41;95537.16;;;17.33;32.15
10652;BME280;5374;42.742;23.266;2024-03-22T11:24:28;95512.38;;;16.98;31.80
10652;BME280;5374;42.742;23.266;2024-03-22T11:27:14;95534.81;;;16.60;31.73
10652;BME280;5374;42.742;23.266;2024-03-22T11:30:01;95531.81;;;16.90;30.96
10652;BME280;5374;42.742;23.266;2024-03-22T11:32:47;95531.88;;;16.85;31.24
10652;BME280;5374;42.742;23.266;2024-03-22T11:35:36;95527.50;;;17.13;30.66
10652;BME280;5374;42.742;23.266;2024-03-22T11:38:22;95508.44;;;17.52;30.91
10652;BME280;5374;42.742;23.266;2024-03-22T11:41:09;95516.94;;;17.78;30.81
10652;BME280;5374;42.742;23.266;2024-03-22T11:43:57;95513.56;;;17.86;30.08
10652;BME280;5374;42.742;23.266;2024-03-22T11:46:45;95497.69;;;17.52;29.41
10652;BME280;5374;42.742;23.266;2024-03-22T11:49:32;95487.69;;;17.58;29.43
10652;BME280;5374;42.742;23.266;2024-03-22T11:52:24;95507.00;;;17.79;29.51
10652;BME280;5374;42.742;23.266;2024-03-22T11:55:11;95516.56;;;17.47;29.54
10652;BME280;5374;42.742;23.266;2024-03-22T11:57:57;95497.47;;;17.49;29.99
10652;BME280;5374;42.742;23.266;2024-03-22T12:00:45;95488.50;;;16.78;30.89
10652;BME280;5374;42.742;23.266;2024-03-22T12:03:31;95481.28;;;16.97;30.46
10652;BME280;5374;42.742;23.266;2024-03-22T12:06:18;95498.34;;;17.25;31.35
10652;BME280;5374;42.742;23.266;2024-03-22T12:09:05;95502.97;;;17.01;31.10
10652;BME280;5374;42.742;23.266;2024-03-22T12:11:55;95474.25;;;17.01;29.59
10652;BME280;5374;42.742;23.266;2024-03-22T12:14:41;95488.25;;;16.98;30.13
10652;BME280;5374;42.742;23.266;2024-03-22T12:17:28;95483.09;;;17.21;30.39
10652;BME280;5374;42.742;23.266;2024-03-22T12:20:14;95489.19;;;17.45;29.97
10652;BME280;5374;42.742;23.266;2024-03-22T12:23:01;95467.00;;;17.58;29.77
10652;BME280;5374;42.742;23.266;2024-03-22T12:25:49;95467.59;;;17.88;28.90
10652;BME280;5374;42.742;23.266;2024-03-22T12:28:36;95472.34;;;17.77;28.08
10652;BME280;5374;42.742;23.266;2024-03-22T12:31:22;95467.00;;;17.91;29.42
10652;BME280;5374;42.742;23.266;2024-03-22T12:34:10;95458.88;;;18.09;29.04
10652;BME280;5374;42.742;23.266;2024-03-22T12:36:56;95465.09;;;18.37;28.57
10652;BME280;5374;42.742;23.266;2024-03-22T12:39:43;95444.94;;;17.94;28.08
10652;BME280;5374;42.742;23.266;2024-03-22T12:42:31;95448.94;;;18.10;28.00
10652;BME280;5374;42.742;23.266;2024-03-22T12:45:18;95447.16;;;18.05;29.53
10652;BME280;5374;42.742;23.266;2024-03-22T12:48:05;95439.22;;;18.28;28.30
10652;BME280;5374;42.742;23.266;2024-03-22T12:50:52;95449.56;;;18.34;28.35
10652;BME280;5374;42.742;23.266;2024-03-22T12:53:39;95443.69;;;18.32;28.17
10652;BME280;5374;42.742;23.266;2024-03-22T12:56:26;95449.56;;;18.34;27.90
10652;BME280;5374;42.742;23.266;2024-03-22T12:59:13;95453.75;;;18.40;28.16
10652;BME280;5374;42.742;23.266;2024-03-22T13:02:00;95457.75;;;18.43;28.16
10652;BME280;5374;42.742;23.266;2024-03-22T13:04:47;95454.28;;;17.96;28.42
10652;BME280;5374;42.742;23.266;2024-03-22T13:07:35;95444.28;;;17.69;29.24
10652;BME280;5374;42.742;23.266;2024-03-22T13:10:21;95451.09;;;17.43;29.72
10652;BME280;5374;42.742;23.266;2024-03-22T13:13:09;95447.91;;;17.41;29.83
10652;BME280;5374;42.742;23.266;2024-03-22T13:15:58;95436.56;;;16.93;29.94
10652;BME280;5374;42.742;23.266;2024-03-22T13:18:47;95442.41;;;16.95;29.49
10652;BME280;5374;42.742;23.266;2024-03-22T13:21:34;95427.47;;;16.70;29.74
10652;BME280;5374;42.742;23.266;2024-03-22T13:24:21;95432.38;;;16.63;29.63
10652;BME280;5374;42.742;23.266;2024-03-22T13:27:07;95441.25;;;16.82;29.17
10652;BME280;5374;42.742;23.266;2024-03-22T13:29:54;95437.22;;;16.61;29.26
10652;BME280;5374;42.742;23.266;2024-03-22T13:32:42;95439.22;;;16.74;29.13
10652;BME280;5374;42.742;23.266;2024-03-22T13:35:29;95428.94;;;16.81;28.47
10652;BME280;5374;42.742;23.266;2024-03-22T13:38:15;95427.56;;;16.84;29.19
10652;BME280;5374;42.742;23.266;2024-03-22T13:41:02;95434.97;;;16.92;28.56
10652;BME280;5374;42.742;23.266;2024-03-22T13:43:51;95422.25;;;16.97;28.24
10652;BME280;5374;42.742;23.266;2024-03-22T13:46:38;95394.56;;;16.83;28.42
10652;BME280;5374;42.742;23.266;2024-03-22T13:49:28;95407.97;;;17.02;29.19
10652;BME280;5374;42.742;23.266;2024-03-22T13:52:15;95405.53;;;17.05;30.02
10652;BME280;5374;42.742;23.266;2024-03-22T13:55:02;95381.94;;;17.02;29.35
10652;BME280;5374;42.742;23.266;2024-03-22T13:57:50;95398.41;;;17.15;28.55
10652;BME280;5374;42.742;23.266;2024-03-22T14:00:36;95396.81;;;17.14;29.83
10652;BME280;5374;42.742;23.266;2024-03-22T14:03:23;95378.53;;;16.97;28.82
10652;BME280;5374;42.742;23.266;2024-03-22T14:06:12;95384.34;;;17.04;29.40
10652;BME280;5374;42.742;23.266;2024-03-22T14:08:59;95387.91;;;16.99;28.76
10652;BME280;5374;42.742;23.266;2024-03-22T14:11:47;95387.69;;;16.96;29.21
10652;BME280;5374;42.742;23.266;2024-03-22T14:14:34;95375.16;;;16.91;29.56
10652;BME280;5374;42.742;23.266;2024-03-22T14:17:21;95395.94;;;16.81;29.39
10652;BME280;5374;42.742;23.266;2024-03-22T14:20:08;95367.25;;;16.38;29.90
10652;BME280;5374;42.742;23.266;2024-03-22T14:22:58;95385.47;;;16.60;28.94
10652;BME280;5374;42.742;23.266;2024-03-22T14:25:46;95368.78;;;16.26;28.79
10652;BME280;5374;42.742;23.266;2024-03-22T14:28:33;95381.75;;;16.37;28.90
10652;BME280;5374;42.742;23.266;2024-03-22T14:31:23;95372.63;;;16.38;28.90
10652;BME280;5374;42.742;23.266;2024-03-22T14:34:10;95367.50;;;16.42;28.96
10652;BME280;5374;42.742;23.266;2024-03-22T14:36:56;95363.50;;;16.39;29.18
10652;BME280;5374;42.742;23.266;2024-03-22T14:39:45;95372.16;;;16.31;29.01
10652;BME280;5374;42.742;23.266;2024-03-22T14:42:32;95371.13;;;16.27;29.21
10652;BME280;5374;42.742;23.266;2024-03-22T14:45:19;95373.69;;;16.19;29.31
10652;BME280;5374;42.742;23.266;2024-03-22T14:48:07;95378.56;;;16.12;29.30
10652;BME280;5374;42.742;23.266;2024-03-22T14:50:55;95376.81;;;16.02;28.98